San Diego, California
Traffic Map
Current Weather Conditions
San Diego, California
Overcast
Overcast
62°
Feels Like: 62°
Wind Chill: 62° Ceiling: 1700
Heat Index: 62° Visibility: 10mi
Dew Point: 53° Wind: 6mph
Humidity: 72% Direction: 300° (WNW)
Pressure: 29.99in Gusts: 0mph
Raw Report DataKSAN 270951Z 30005KT 10SM BKN017 OVC025 17/12 A2999 RMK AO2 SLP156 T01670117
Traffic Incident Summary
Active as of:
Severity:
Category:
InformationThere was an issue retrieving the traffic information for this location. Please try a different location or try again shortly.
Advertisements
Track Severe Weather on mobile